createdAt,value
2018-05-26T00:00:28.316Z,13.67
2018-05-26T00:02:55.948Z,13.65
2018-05-26T00:05:23.602Z,13.63
2018-05-26T00:07:51.209Z,13.61
2018-05-26T00:10:18.930Z,13.59
2018-05-26T00:12:46.545Z,13.58
2018-05-26T00:15:14.188Z,13.57
2018-05-26T00:17:41.793Z,13.55
2018-05-26T00:20:09.422Z,13.53
2018-05-26T00:22:37.034Z,13.54
2018-05-26T00:25:04.709Z,13.55
2018-05-26T00:27:32.328Z,13.53
2018-05-26T00:30:00.032Z,13.54
2018-05-26T00:32:27.694Z,13.51
2018-05-26T00:34:55.367Z,13.48
2018-05-26T00:37:22.973Z,13.46
2018-05-26T00:39:50.607Z,13.42
2018-05-26T00:42:18.218Z,13.37
2018-05-26T00:44:45.908Z,13.33
2018-05-26T00:47:13.515Z,13.30
2018-05-26T00:49:41.142Z,13.28
2018-05-26T00:52:08.752Z,13.27
2018-05-26T00:54:36.390Z,13.25
2018-05-26T00:57:04.102Z,13.20
2018-05-26T00:59:31.734Z,13.17
2018-05-26T01:01:59.346Z,13.13
2018-05-26T01:04:27.099Z,13.10
2018-05-26T01:06:54.750Z,13.07
2018-05-26T01:09:22.423Z,13.06
2018-05-26T01:11:50.063Z,13.05
2018-05-26T01:14:17.679Z,13.03
2018-05-26T01:16:45.402Z,13.02
2018-05-26T01:19:13.023Z,13.01
2018-05-26T01:21:40.650Z,13.00
2018-05-26T01:24:08.262Z,12.99
2018-05-26T01:26:35.890Z,12.97
2018-05-26T01:29:03.510Z,12.98
2018-05-26T01:31:31.152Z,12.98
2018-05-26T01:33:58.834Z,12.98
2018-05-26T01:36:26.512Z,12.98
2018-05-26T01:38:54.261Z,12.97
2018-05-26T01:41:21.899Z,12.97
2018-05-26T01:43:49.515Z,12.98
2018-05-26T01:46:17.156Z,12.96
2018-05-26T01:48:44.779Z,12.93
2018-05-26T01:51:12.479Z,12.89
2018-05-26T01:53:40.099Z,12.86
2018-05-26T01:56:07.735Z,12.83
2018-05-26T01:58:35.355Z,12.80
2018-05-26T02:01:03.000Z,12.78
2018-05-26T02:03:30.619Z,12.75
2018-05-26T02:05:58.254Z,12.75
2018-05-26T02:08:25.871Z,12.74
2018-05-26T02:10:53.506Z,12.73
2018-05-26T02:13:21.115Z,12.73
2018-05-26T02:15:48.799Z,12.72
2018-05-26T02:18:16.459Z,12.70
2018-05-26T02:20:44.123Z,12.66
2018-05-26T02:23:11.763Z,12.60
2018-05-26T02:25:39.447Z,12.53
2018-05-26T02:28:07.112Z,12.46
2018-05-26T02:30:34.726Z,12.41
2018-05-26T02:33:02.431Z,12.37
2018-05-26T02:35:30.046Z,12.35
2018-05-26T02:37:57.693Z,12.34
2018-05-26T02:40:25.302Z,12.33
2018-05-26T02:42:52.935Z,12.33
2018-05-26T02:45:20.647Z,12.33
2018-05-26T02:47:48.286Z,12.32
2018-05-26T02:50:15.971Z,12.32
2018-05-26T02:52:43.610Z,12.31
2018-05-26T02:55:11.228Z,12.31
2018-05-26T02:57:38.867Z,12.31
2018-05-26T03:00:06.482Z,12.31
2018-05-26T03:02:34.183Z,12.28
2018-05-26T03:05:07.443Z,12.28
2018-05-26T03:07:40.767Z,12.28
2018-05-26T03:10:14.161Z,12.29
2018-05-26T03:12:47.496Z,12.30
2018-05-26T03:15:14.550Z,12.30
2018-05-26T03:20:40.663Z,12.29
2018-05-26T03:23:08.315Z,12.30
2018-05-26T03:25:35.935Z,12.31
2018-05-26T03:28:03.634Z,12.36
2018-05-26T03:30:31.253Z,12.40
2018-05-26T03:32:58.899Z,12.43
2018-05-26T03:35:26.515Z,12.48
2018-05-26T03:37:54.186Z,12.51
2018-05-26T03:40:21.803Z,12.55
2018-05-26T03:42:49.456Z,12.58
2018-05-26T03:45:17.075Z,12.63
2018-05-26T03:47:44.685Z,12.68
2018-05-26T03:50:12.322Z,12.71
2018-05-26T03:52:39.944Z,12.77
2018-05-26T03:58:34.485Z,12.89
2018-05-26T04:01:02.096Z,12.96
2018-05-26T04:03:29.753Z,13.00
2018-05-26T04:05:57.410Z,13.06
2018-05-26T04:08:25.036Z,13.13
2018-05-26T04:10:52.652Z,13.18
2018-05-26T04:13:20.271Z,13.26
2018-05-26T04:15:47.901Z,13.33
2018-05-26T04:18:15.571Z,13.39
2018-05-26T04:20:43.235Z,13.45
2018-05-26T04:23:10.846Z,13.51
2018-05-26T04:25:38.555Z,13.55
2018-05-26T04:28:06.173Z,13.59
2018-05-26T04:30:33.816Z,13.59
2018-05-26T04:33:01.422Z,13.56
2018-05-26T04:35:29.082Z,13.50
2018-05-26T04:37:56.766Z,13.44
2018-05-26T04:40:24.403Z,13.40
2018-05-26T04:42:52.018Z,13.39
2018-05-26T04:45:19.754Z,13.41
2018-05-26T04:47:47.414Z,13.44
2018-05-26T04:50:15.085Z,13.54
2018-05-26T04:52:42.698Z,13.64
2018-05-26T04:55:10.406Z,13.77
2018-05-26T04:57:38.023Z,13.91
2018-05-26T05:00:05.726Z,14.04
2018-05-26T05:02:33.395Z,14.20
2018-05-26T05:05:01.049Z,14.34
2018-05-26T05:09:55.588Z,14.62
2018-05-26T05:12:23.223Z,14.71
2018-05-26T05:14:50.878Z,14.81
2018-05-26T05:17:18.546Z,14.94
2018-05-26T05:19:46.159Z,15.03
2018-05-26T05:22:13.790Z,15.11
2018-05-26T05:24:41.399Z,15.20
2018-05-26T05:27:09.098Z,15.28
2018-05-26T05:29:36.707Z,15.40
2018-05-26T05:32:04.414Z,15.52
2018-05-26T05:34:32.107Z,15.63
2018-05-26T05:36:59.743Z,15.72
2018-05-26T05:39:27.410Z,15.82
2018-05-26T05:41:55.046Z,15.91
2018-05-26T05:44:22.738Z,16.00
2018-05-26T05:46:50.395Z,16.08
2018-05-26T05:49:18.006Z,16.18
2018-05-26T05:51:45.651Z,16.28
2018-05-26T05:54:13.258Z,16.41
2018-05-26T05:56:40.943Z,16.54
2018-05-26T05:59:08.559Z,16.64
2018-05-26T06:01:36.199Z,16.72
2018-05-26T06:04:03.819Z,16.82
2018-05-26T06:06:31.502Z,16.98
2018-05-26T06:08:59.123Z,17.14
2018-05-26T06:11:26.764Z,17.19
2018-05-26T06:13:54.485Z,17.22
2018-05-26T06:16:22.126Z,17.24
2018-05-26T06:18:49.803Z,17.26
2018-05-26T06:21:17.448Z,17.30
2018-05-26T06:23:45.206Z,17.35
2018-05-26T06:26:12.891Z,17.37
2018-05-26T06:28:40.507Z,17.38
2018-05-26T06:31:08.166Z,17.39
2018-05-26T06:33:35.879Z,17.39
2018-05-26T06:36:03.495Z,17.35
2018-05-26T06:38:31.135Z,17.30
2018-05-26T06:40:58.862Z,17.25
2018-05-26T06:43:26.526Z,17.23
2018-05-26T06:45:54.194Z,17.26
2018-05-26T06:48:21.855Z,17.29
2018-05-26T06:50:49.468Z,17.34
2018-05-26T06:53:17.111Z,17.40
2018-05-26T06:55:44.731Z,17.43
2018-05-26T06:58:12.362Z,17.47
2018-05-26T07:00:39.994Z,17.55
2018-05-26T07:03:07.722Z,17.61
2018-05-26T07:05:35.381Z,17.68
2018-05-26T07:08:03.014Z,17.75
2018-05-26T07:10:30.636Z,17.78
2018-05-26T07:12:58.279Z,17.82
2018-05-26T07:15:25.939Z,17.86
2018-05-26T07:17:53.578Z,17.93
2018-05-26T07:20:21.189Z,18.00
2018-05-26T07:22:48.923Z,18.06
2018-05-26T07:25:16.545Z,18.10
2018-05-26T07:27:44.180Z,18.13
2018-05-26T07:30:11.796Z,18.17
2018-05-26T07:32:39.474Z,18.21
2018-05-26T07:35:07.135Z,18.23
2018-05-26T07:37:34.807Z,18.26
2018-05-26T07:40:02.421Z,18.29
2018-05-26T07:42:30.058Z,18.34
2018-05-26T07:44:57.681Z,18.39
2018-05-26T07:47:25.306Z,18.45
2018-05-26T07:49:53.011Z,18.51
2018-05-26T07:52:20.677Z,18.56
2018-05-26T07:54:48.326Z,18.62
2018-05-26T07:57:15.991Z,18.66
2018-05-26T07:59:43.621Z,18.73
2018-05-26T08:02:11.234Z,18.82
2018-05-26T08:04:38.877Z,18.90
2018-05-26T08:07:06.650Z,19.00
2018-05-26T08:09:34.295Z,19.11
2018-05-26T08:12:01.969Z,19.21
2018-05-26T08:14:29.610Z,19.31
2018-05-26T08:16:57.231Z,19.41
2018-05-26T08:19:24.949Z,19.52
2018-05-26T08:21:52.618Z,19.63
2018-05-26T08:24:20.258Z,19.75
2018-05-26T08:26:47.948Z,19.86
2018-05-26T08:29:15.598Z,19.95
2018-05-26T08:31:43.216Z,20.03
2018-05-26T08:34:10.854Z,20.11
2018-05-26T08:36:38.467Z,20.15
2018-05-26T08:39:06.161Z,20.18
2018-05-26T08:41:33.775Z,20.23
2018-05-26T08:44:01.415Z,20.29
2018-05-26T08:46:29.031Z,20.39
2018-05-26T08:48:56.665Z,20.52
2018-05-26T08:51:24.363Z,20.65
2018-05-26T08:53:52.025Z,20.83
2018-05-26T08:56:19.694Z,21.08
2018-05-26T08:58:47.451Z,21.33
2018-05-26T09:01:15.059Z,21.58
2018-05-26T09:03:42.683Z,21.82
2018-05-26T09:06:10.332Z,21.99
2018-05-26T09:08:38.003Z,22.23
2018-05-26T09:11:05.662Z,22.45
2018-05-26T09:13:33.321Z,22.64
2018-05-26T09:16:00.950Z,22.82
2018-05-26T09:18:28.650Z,22.92
2018-05-26T09:20:56.283Z,23.02
2018-05-26T09:23:23.982Z,23.13
2018-05-26T09:25:51.644Z,23.11
2018-05-26T09:28:19.259Z,23.10
2018-05-26T09:30:46.960Z,22.98
2018-05-26T09:33:14.626Z,22.81
2018-05-26T09:35:42.266Z,22.64
2018-05-26T09:38:09.946Z,22.48
2018-05-26T09:40:37.620Z,22.30
2018-05-26T09:43:05.238Z,22.12
2018-05-26T09:45:32.896Z,21.89
2018-05-26T09:48:00.514Z,21.67
2018-05-26T09:50:28.152Z,21.51
2018-05-26T09:52:55.817Z,21.40
2018-05-26T09:55:23.493Z,21.36
2018-05-26T09:57:51.111Z,21.34
2018-05-26T10:00:18.771Z,21.34
2018-05-26T10:02:46.392Z,21.36
2018-05-26T10:05:14.035Z,21.42
2018-05-26T10:07:41.655Z,21.43
2018-05-26T10:10:09.292Z,21.44
2018-05-26T10:12:37.033Z,21.45
2018-05-26T10:15:04.650Z,21.46
2018-05-26T10:17:32.348Z,21.47
2018-05-26T10:20:00.034Z,21.54
2018-05-26T10:22:27.638Z,21.63
2018-05-26T10:24:55.335Z,21.74
2018-05-26T10:27:22.999Z,21.87
2018-05-26T10:29:50.611Z,22.00
2018-05-26T10:32:18.334Z,22.11
2018-05-26T10:34:45.956Z,22.18
2018-05-26T10:37:13.601Z,22.27
2018-05-26T10:39:41.305Z,22.35
2018-05-26T10:42:08.934Z,22.39
2018-05-26T10:44:36.626Z,22.42
2018-05-26T10:47:04.300Z,22.53
2018-05-26T10:49:31.956Z,22.63
2018-05-26T10:51:59.585Z,22.75
2018-05-26T10:57:01.186Z,22.98
2018-05-26T10:59:28.794Z,23.10
2018-05-26T11:01:56.519Z,23.20
2018-05-26T11:04:24.138Z,23.30
2018-05-26T11:06:51.834Z,23.43
2018-05-26T11:09:19.441Z,23.51
2018-05-26T11:11:47.058Z,23.63
2018-05-26T11:14:14.690Z,23.75
2018-05-26T11:16:42.310Z,23.87
2018-05-26T11:19:09.942Z,23.99
2018-05-26T11:21:37.555Z,24.11
2018-05-26T11:24:05.478Z,24.23
2018-05-26T11:26:32.820Z,24.36
2018-05-26T11:29:00.504Z,24.45
2018-05-26T11:31:28.087Z,24.54
2018-05-26T11:33:55.818Z,24.62
2018-05-26T11:36:23.478Z,24.71
2018-05-26T11:38:51.146Z,24.78
2018-05-26T11:41:18.754Z,24.84
2018-05-26T11:43:46.468Z,24.90
2018-05-26T11:46:14.135Z,24.93
2018-05-26T11:48:41.790Z,24.92
2018-05-26T11:51:09.395Z,24.95
2018-05-26T11:53:37.123Z,24.96
2018-05-26T11:56:04.780Z,25.00
2018-05-26T11:58:32.447Z,25.05
2018-05-26T12:01:00.111Z,25.06
2018-05-26T12:03:27.747Z,25.08
2018-05-26T12:05:55.528Z,25.14
2018-05-26T12:08:23.155Z,25.22
2018-05-26T12:10:50.816Z,25.32
2018-05-26T12:13:18.430Z,25.41
2018-05-26T12:15:46.034Z,25.51
2018-05-26T12:18:13.665Z,25.59
2018-05-26T12:20:41.399Z,25.67
2018-05-26T12:23:09.072Z,25.76
2018-05-26T12:25:36.726Z,25.86
2018-05-26T12:28:04.335Z,25.97
2018-05-26T12:30:31.961Z,26.10
2018-05-26T12:32:59.572Z,26.24
2018-05-26T12:35:27.279Z,26.39
2018-05-26T12:37:54.939Z,26.41
2018-05-26T12:40:22.575Z,26.45
2018-05-26T12:42:50.186Z,26.56
2018-05-26T12:45:17.826Z,26.64
2018-05-26T12:47:45.497Z,26.64
2018-05-26T12:50:13.159Z,26.63
2018-05-26T12:52:40.810Z,26.62
2018-05-26T12:55:08.447Z,26.60
2018-05-26T12:57:36.051Z,26.58
2018-05-26T13:00:03.676Z,26.58
2018-05-26T13:02:31.291Z,26.56
2018-05-26T13:04:58.924Z,26.57
2018-05-26T13:07:26.587Z,26.59
2018-05-26T13:09:54.222Z,26.63
2018-05-26T13:12:22.570Z,26.62
2018-05-26T13:14:50.199Z,26.60
2018-05-26T13:17:17.840Z,26.59
2018-05-26T13:19:45.513Z,26.58
2018-05-26T13:22:13.168Z,26.63
2018-05-26T13:24:40.803Z,26.68
2018-05-26T13:27:08.405Z,26.74
2018-05-26T13:29:36.070Z,26.69
2018-05-26T13:32:03.671Z,26.63
2018-05-26T13:34:31.306Z,26.60
2018-05-26T13:36:58.938Z,26.52
2018-05-26T13:39:26.553Z,26.43
2018-05-26T13:41:54.202Z,26.34
2018-05-26T13:44:21.806Z,26.30
2018-05-26T13:46:49.491Z,26.20
2018-05-26T13:49:17.196Z,26.12
2018-05-26T13:51:44.763Z,26.06
2018-05-26T13:54:12.375Z,25.98
2018-05-26T13:56:40.025Z,25.95
2018-05-26T13:59:07.629Z,25.94
2018-05-26T14:01:35.259Z,25.97
2018-05-26T14:04:02.875Z,26.00
2018-05-26T14:06:30.582Z,26.06
2018-05-26T14:08:58.187Z,26.10
2018-05-26T14:11:25.814Z,26.07
2018-05-26T14:13:53.462Z,25.99
2018-05-26T14:16:21.126Z,25.90
2018-05-26T14:18:49.055Z,25.79
2018-05-26T14:21:16.696Z,25.66
2018-05-26T14:23:44.302Z,25.57
2018-05-26T14:26:11.988Z,25.51
2018-05-26T14:28:39.653Z,25.44
2018-05-26T14:31:07.311Z,25.34
2018-05-26T14:33:34.966Z,25.25
2018-05-26T14:36:02.640Z,25.22
2018-05-26T14:38:30.391Z,25.22
2018-05-26T14:40:58.022Z,25.24
2018-05-26T14:43:25.727Z,25.23
2018-05-26T14:45:53.384Z,25.23
2018-05-26T14:48:20.999Z,25.27
2018-05-26T14:50:48.653Z,25.25
2018-05-26T14:53:16.264Z,25.19
2018-05-26T14:55:43.930Z,25.10
2018-05-26T14:58:11.639Z,25.03
2018-05-26T15:00:39.248Z,24.96
2018-05-26T15:03:06.922Z,24.84
2018-05-26T15:05:34.578Z,24.67
2018-05-26T15:08:02.227Z,24.53
2018-05-26T15:10:29.906Z,24.40
2018-05-26T15:12:57.645Z,24.31
2018-05-26T15:15:25.225Z,24.27
2018-05-26T15:17:52.858Z,24.23
2018-05-26T15:20:20.483Z,24.20
2018-05-26T15:22:48.156Z,24.14
2018-05-26T15:25:15.751Z,24.06
2018-05-26T15:27:43.379Z,23.99
2018-05-26T15:30:11.106Z,23.94
2018-05-26T15:32:38.756Z,23.87
2018-05-26T15:35:06.436Z,23.80
2018-05-26T15:37:34.076Z,23.69
2018-05-26T15:40:01.751Z,23.59
2018-05-26T15:42:29.401Z,23.45
2018-05-26T15:44:57.079Z,23.32
2018-05-26T15:47:24.808Z,23.22
2018-05-26T15:49:52.419Z,23.13
2018-05-26T15:52:20.173Z,23.05
2018-05-26T15:54:47.794Z,22.98
2018-05-26T15:57:15.488Z,22.94
2018-05-26T15:59:43.159Z,22.92
2018-05-26T16:02:10.819Z,22.91
2018-05-26T16:04:38.427Z,22.91
2018-05-26T16:07:06.082Z,22.93
2018-05-26T16:09:33.699Z,22.92
2018-05-26T16:12:01.359Z,22.90
2018-05-26T16:14:28.995Z,22.95
2018-05-26T16:16:56.615Z,22.97
2018-05-26T16:19:24.346Z,23.00
2018-05-26T16:21:51.955Z,23.07
2018-05-26T16:24:19.671Z,23.20
2018-05-26T16:26:47.286Z,23.43
2018-05-26T16:29:15.003Z,23.71
2018-05-26T16:31:42.615Z,24.01
2018-05-26T16:34:10.254Z,24.32
2018-05-26T16:36:37.872Z,24.62
2018-05-26T16:39:06.346Z,24.88
2018-05-26T16:41:33.950Z,25.08
2018-05-26T16:44:01.587Z,25.24
2018-05-26T16:46:29.194Z,25.45
2018-05-26T16:48:56.915Z,25.60
2018-05-26T16:51:24.528Z,25.70
2018-05-26T16:53:52.164Z,25.72
2018-05-26T16:56:19.794Z,25.73
2018-05-26T16:58:47.475Z,25.83
2018-05-26T17:01:15.123Z,25.93
2018-05-26T17:03:42.765Z,25.96
2018-05-26T17:06:10.374Z,25.95
2018-05-26T17:08:38.110Z,25.93
2018-05-26T17:11:05.727Z,25.90
2018-05-26T17:13:33.355Z,25.87
2018-05-26T17:16:00.958Z,25.85
2018-05-26T17:18:28.581Z,25.85
2018-05-26T17:20:56.823Z,25.88
2018-05-26T17:23:24.435Z,26.00
2018-05-26T17:25:52.230Z,26.09
2018-05-26T17:28:19.851Z,26.11
2018-05-26T17:30:47.589Z,26.06
2018-05-26T17:33:15.219Z,26.01
2018-05-26T17:35:42.871Z,26.02
2018-05-26T17:38:10.475Z,26.07
2018-05-26T17:40:38.125Z,25.99
2018-05-26T17:43:05.735Z,25.77
2018-05-26T17:45:33.464Z,25.52
2018-05-26T17:48:01.082Z,25.21
2018-05-26T17:50:29.238Z,24.89
2018-05-26T17:52:56.842Z,24.57
2018-05-26T17:55:24.493Z,24.29
2018-05-26T17:57:52.097Z,24.03
2018-05-26T18:00:19.727Z,23.78
2018-05-26T18:02:47.399Z,23.55
2018-05-26T18:05:15.064Z,23.36
2018-05-26T18:07:42.683Z,23.18
2018-05-26T18:10:10.387Z,23.00
2018-05-26T18:12:38.050Z,22.83
2018-05-26T18:15:05.755Z,22.70
2018-05-26T18:17:33.367Z,22.58
2018-05-26T18:20:01.003Z,22.48
2018-05-26T18:22:28.699Z,22.40
2018-05-26T18:24:56.334Z,22.32
2018-05-26T18:27:24.019Z,22.25
2018-05-26T18:29:51.654Z,22.19
2018-05-26T18:32:19.343Z,22.12
2018-05-26T18:34:46.955Z,22.05
2018-05-26T18:37:14.595Z,21.97
2018-05-26T18:39:42.211Z,21.92
2018-05-26T18:42:09.846Z,21.86
2018-05-26T18:44:37.450Z,21.81
2018-05-26T18:47:05.082Z,21.76
2018-05-26T18:49:32.690Z,21.70
2018-05-26T18:52:01.051Z,21.63
2018-05-26T18:54:28.718Z,21.56
2018-05-26T18:56:56.380Z,21.47
2018-05-26T18:59:23.994Z,21.39
2018-05-26T19:01:51.630Z,21.32
2018-05-26T19:04:19.257Z,21.25
2018-05-26T19:06:46.912Z,21.19
2018-05-26T19:09:14.538Z,21.03
2018-05-26T19:11:42.182Z,21.02
2018-05-26T19:14:09.955Z,20.94
2018-05-26T19:16:37.689Z,20.84
2018-05-26T19:19:05.352Z,20.76
2018-05-26T19:21:33.106Z,20.66
2018-05-26T19:24:01.047Z,20.56
2018-05-26T19:26:28.691Z,20.45
2018-05-26T19:28:56.403Z,20.38
2018-05-26T19:31:24.094Z,20.30
2018-05-26T19:33:51.734Z,20.22
2018-05-26T19:36:19.391Z,20.17
2018-05-26T19:38:47.012Z,20.08
2018-05-26T19:41:14.650Z,20.01
2018-05-26T19:43:42.271Z,19.93
2018-05-26T19:46:09.927Z,19.85
2018-05-26T19:48:37.598Z,19.79
2018-05-26T19:51:05.259Z,19.73
2018-05-26T19:53:32.918Z,19.67
2018-05-26T19:56:00.582Z,19.61
2018-05-26T19:58:28.252Z,19.56
2018-05-26T20:00:55.925Z,19.50
2018-05-26T20:03:23.568Z,19.44
2018-05-26T20:05:51.179Z,19.37
2018-05-26T20:08:18.891Z,19.31
2018-05-26T20:10:46.503Z,19.25
2018-05-26T20:13:14.155Z,19.20
2018-05-26T20:15:41.769Z,19.15
2018-05-26T20:18:09.411Z,19.10
2018-05-26T20:20:37.022Z,19.06
2018-05-26T20:23:04.772Z,19.01
2018-05-26T20:25:32.418Z,18.96
2018-05-26T20:28:00.046Z,18.92
2018-05-26T20:30:27.650Z,18.88
2018-05-26T20:32:55.286Z,18.85
2018-05-26T20:35:22.886Z,18.82
2018-05-26T20:37:50.519Z,18.77
2018-05-26T20:40:18.125Z,18.75
2018-05-26T20:42:45.761Z,18.71
2018-05-26T20:45:13.369Z,18.67
2018-05-26T20:47:40.999Z,18.63
2018-05-26T20:50:08.694Z,18.62
2018-05-26T20:52:36.271Z,18.59
2018-05-26T20:55:03.874Z,18.56
2018-05-26T20:57:31.531Z,18.51
2018-05-26T20:59:59.159Z,18.47
2018-05-26T21:02:26.804Z,18.42
2018-05-26T21:04:54.431Z,18.35
2018-05-26T21:07:22.358Z,18.31
2018-05-26T21:09:49.987Z,18.25
2018-05-26T21:12:17.705Z,18.18
2018-05-26T21:14:45.334Z,18.10
2018-05-26T21:17:12.947Z,18.04
2018-05-26T21:19:40.583Z,17.98
2018-05-26T21:22:08.254Z,17.94
2018-05-26T21:24:35.919Z,17.87
2018-05-26T21:27:03.578Z,17.84
2018-05-26T21:29:31.215Z,17.81
2018-05-26T21:31:58.824Z,17.77
2018-05-26T21:34:26.567Z,17.74
2018-05-26T21:36:54.178Z,17.70
2018-05-26T21:39:21.890Z,17.67
2018-05-26T21:41:49.554Z,17.62
2018-05-26T21:44:17.213Z,17.58
2018-05-26T21:46:44.830Z,17.53
2018-05-26T21:49:12.543Z,17.49
2018-05-26T21:51:40.163Z,17.43
2018-05-26T21:54:07.803Z,17.37
2018-05-26T21:56:35.419Z,17.31
2018-05-26T21:59:03.059Z,17.23
2018-05-26T22:01:30.752Z,17.13
2018-05-26T22:03:58.387Z,17.00
2018-05-26T22:06:26.010Z,16.90
2018-05-26T22:08:53.647Z,16.78
2018-05-26T22:11:21.258Z,16.68
2018-05-26T22:13:48.909Z,16.60
2018-05-26T22:16:16.523Z,16.51
2018-05-26T22:18:44.178Z,16.44
2018-05-26T22:21:11.814Z,16.34
2018-05-26T22:23:39.435Z,16.26
2018-05-26T22:26:07.066Z,16.18
2018-05-26T22:28:34.682Z,16.13
2018-05-26T22:31:02.320Z,16.07
2018-05-26T22:33:29.933Z,16.01
2018-05-26T22:35:57.571Z,15.95
2018-05-26T22:38:25.270Z,15.91
2018-05-26T22:40:52.903Z,15.87
2018-05-26T22:43:20.604Z,15.84
2018-05-26T22:45:48.243Z,15.80
2018-05-26T22:48:15.858Z,15.74
2018-05-26T22:50:43.490Z,15.66
2018-05-26T22:53:11.097Z,15.57
2018-05-26T22:55:38.743Z,15.48
2018-05-26T22:58:06.479Z,15.43
2018-05-26T23:00:34.125Z,15.39
2018-05-26T23:03:01.745Z,15.35
2018-05-26T23:05:29.467Z,15.35
2018-05-26T23:07:57.083Z,15.37
2018-05-26T23:10:24.727Z,15.40
2018-05-26T23:12:52.341Z,15.44
2018-05-26T23:15:19.981Z,15.47
2018-05-26T23:17:47.671Z,15.47
2018-05-26T23:20:15.314Z,15.47
2018-05-26T23:22:42.994Z,15.47
2018-05-26T23:25:10.636Z,15.44
2018-05-26T23:27:38.268Z,15.40
2018-05-26T23:30:05.984Z,15.34
2018-05-26T23:32:33.626Z,15.30
2018-05-26T23:35:01.311Z,15.26
2018-05-26T23:37:28.971Z,15.23
2018-05-26T23:39:56.586Z,15.21
2018-05-26T23:42:24.285Z,15.18
2018-05-26T23:44:51.950Z,15.13
2018-05-26T23:47:19.620Z,15.11
2018-05-26T23:49:47.230Z,15.11
2018-05-26T23:52:14.941Z,15.11
2018-05-26T23:54:42.607Z,15.14
2018-05-26T23:57:10.266Z,15.13
2018-05-26T23:59:37.882Z,15.09
